sensor_id;sensor_type;location;lat;lon;timestamp;temperature;humidity
40676;DHT22;26359;48.750;9.314;2023-02-28T00:00:12;-0.60;99.90
40676;DHT22;26359;48.750;9.314;2023-02-28T00:02:40;-0.60;99.90
40676;DHT22;26359;48.750;9.314;2023-02-28T00:05:07;-0.60;99.90
40676;DHT22;26359;48.750;9.314;2023-02-28T00:07:33;-0.60;99.90
40676;DHT22;26359;48.750;9.314;2023-02-28T00:09:59;-0.60;99.90
40676;DHT22;26359;48.750;9.314;2023-02-28T00:12:26;-0.70;99.90
40676;DHT22;26359;48.750;9.314;2023-02-28T00:14:52;-0.70;99.90
40676;DHT22;26359;48.750;9.314;2023-02-28T00:17:18;-0.70;99.90
40676;DHT22;26359;48.750;9.314;2023-02-28T00:19:49;-0.70;99.90
40676;DHT22;26359;48.750;9.314;2023-02-28T00:22:21;-0.70;99.90
40676;DHT22;26359;48.750;9.314;2023-02-28T00:24:47;-0.70;99.90
40676;DHT22;26359;48.750;9.314;2023-02-28T00:27:13;-0.70;99.90
40676;DHT22;26359;48.750;9.314;2023-02-28T00:29:39;-0.70;99.90
40676;DHT22;26359;48.750;9.314;2023-02-28T00:32:05;-0.70;99.90
40676;DHT22;26359;48.750;9.314;2023-02-28T00:34:31;-0.70;99.90
40676;DHT22;26359;48.750;9.314;2023-02-28T00:37:03;-0.70;99.90
40676;DHT22;26359;48.750;9.314;2023-02-28T00:39:29;-0.70;99.90
40676;DHT22;26359;48.750;9.314;2023-02-28T00:41:54;-0.70;99.90
40676;DHT22;26359;48.750;9.314;2023-02-28T00:44:20;-0.70;99.90
40676;DHT22;26359;48.750;9.314;2023-02-28T00:46:46;-0.80;99.90
40676;DHT22;26359;48.750;9.314;2023-02-28T00:49:12;-0.80;99.90
40676;DHT22;26359;48.750;9.314;2023-02-28T00:51:37;-0.80;99.90
40676;DHT22;26359;48.750;9.314;2023-02-28T00:54:03;-0.80;99.90
40676;DHT22;26359;48.750;9.314;2023-02-28T00:56:28;-0.80;99.90
40676;DHT22;26359;48.750;9.314;2023-02-28T00:58:54;-0.80;99.90
40676;DHT22;26359;48.750;9.314;2023-02-28T01:01:19;-0.80;99.90
40676;DHT22;26359;48.750;9.314;2023-02-28T01:03:45;-0.80;99.90
40676;DHT22;26359;48.750;9.314;2023-02-28T01:06:11;-0.90;99.90
40676;DHT22;26359;48.750;9.314;2023-02-28T01:08:36;-0.80;99.90
40676;DHT22;26359;48.750;9.314;2023-02-28T01:11:10;-0.90;99.90
40676;DHT22;26359;48.750;9.314;2023-02-28T01:13:36;-0.90;99.90
40676;DHT22;26359;48.750;9.314;2023-02-28T01:16:01;-0.90;99.90
40676;DHT22;26359;48.750;9.314;2023-02-28T01:18:27;-0.90;99.90
40676;DHT22;26359;48.750;9.314;2023-02-28T01:20:52;-0.90;99.90
40676;DHT22;26359;48.750;9.314;2023-02-28T01:23:19;-0.90;99.90
40676;DHT22;26359;48.750;9.314;2023-02-28T01:25:46;-0.90;99.90
40676;DHT22;26359;48.750;9.314;2023-02-28T01:28:12;-0.90;99.90
40676;DHT22;26359;48.750;9.314;2023-02-28T01:30:37;-0.90;99.90
40676;DHT22;26359;48.750;9.314;2023-02-28T01:33:03;-0.90;99.90
40676;DHT22;26359;48.750;9.314;2023-02-28T01:35:31;-0.90;99.90
40676;DHT22;26359;48.750;9.314;2023-02-28T01:37:57;-1.00;99.90
40676;DHT22;26359;48.750;9.314;2023-02-28T01:40:22;-1.00;99.90
40676;DHT22;26359;48.750;9.314;2023-02-28T01:42:48;-1.00;99.90
40676;DHT22;26359;48.750;9.314;2023-02-28T01:45:28;-1.00;99.90
40676;DHT22;26359;48.750;9.314;2023-02-28T01:48:02;-0.90;99.90
40676;DHT22;26359;48.750;9.314;2023-02-28T01:50:31;-0.90;99.90
40676;DHT22;26359;48.750;9.314;2023-02-28T01:53:02;-0.90;99.90
40676;DHT22;26359;48.750;9.314;2023-02-28T01:55:30;-0.90;99.90
40676;DHT22;26359;48.750;9.314;2023-02-28T01:58:01;-0.90;99.90
40676;DHT22;26359;48.750;9.314;2023-02-28T02:00:28;-0.90;99.90
40676;DHT22;26359;48.750;9.314;2023-02-28T02:02:59;-0.90;99.90
40676;DHT22;26359;48.750;9.314;2023-02-28T02:05:28;-0.90;99.90
40676;DHT22;26359;48.750;9.314;2023-02-28T02:08:04;-0.90;99.90
40676;DHT22;26359;48.750;9.314;2023-02-28T02:10:33;-1.00;99.90
40676;DHT22;26359;48.750;9.314;2023-02-28T02:21:35;-0.90;99.90
40676;DHT22;26359;48.750;9.314;2023-02-28T02:27:15;-1.00;99.90
40676;DHT22;26359;48.750;9.314;2023-02-28T02:30:18;-0.90;99.90
40676;DHT22;26359;48.750;9.314;2023-02-28T02:39:04;-0.90;99.90
40676;DHT22;26359;48.750;9.314;2023-02-28T02:46:48;-1.00;99.90
40676;DHT22;26359;48.750;9.314;2023-02-28T02:49:21;-1.00;99.90
40676;DHT22;26359;48.750;9.314;2023-02-28T02:51:49;-1.00;99.90
40676;DHT22;26359;48.750;9.314;2023-02-28T02:54:23;-1.00;99.90
40676;DHT22;26359;48.750;9.314;2023-02-28T02:56:54;-1.00;99.90
40676;DHT22;26359;48.750;9.314;2023-02-28T02:59:22;-0.90;99.90
40676;DHT22;26359;48.750;9.314;2023-02-28T03:01:51;-0.90;99.90
40676;DHT22;26359;48.750;9.314;2023-02-28T03:04:20;-0.90;99.90
40676;DHT22;26359;48.750;9.314;2023-02-28T03:06:47;-0.90;99.90
40676;DHT22;26359;48.750;9.314;2023-02-28T03:09:13;-0.90;99.90
40676;DHT22;26359;48.750;9.314;2023-02-28T03:11:40;-0.90;99.90
40676;DHT22;26359;48.750;9.314;2023-02-28T03:14:20;-0.90;99.90
40676;DHT22;26359;48.750;9.314;2023-02-28T03:27:32;-0.90;99.90
40676;DHT22;26359;48.750;9.314;2023-02-28T03:30:06;-0.80;99.90
40676;DHT22;26359;48.750;9.314;2023-02-28T03:32:42;-0.80;99.90
40676;DHT22;26359;48.750;9.314;2023-02-28T03:35:31;-0.90;99.90
40676;DHT22;26359;48.750;9.314;2023-02-28T03:38:07;-0.90;99.90
40676;DHT22;26359;48.750;9.314;2023-02-28T03:40:36;-0.90;99.90
40676;DHT22;26359;48.750;9.314;2023-02-28T03:43:07;-0.90;99.90
40676;DHT22;26359;48.750;9.314;2023-02-28T03:45:37;-0.90;99.90
40676;DHT22;26359;48.750;9.314;2023-02-28T03:48:08;-0.90;99.90
40676;DHT22;26359;48.750;9.314;2023-02-28T03:50:41;-0.90;99.90
40676;DHT22;26359;48.750;9.314;2023-02-28T03:53:29;-0.80;99.90
40676;DHT22;26359;48.750;9.314;2023-02-28T03:56:01;-0.80;99.90
40676;DHT22;26359;48.750;9.314;2023-02-28T03:58:45;-0.90;99.90
40676;DHT22;26359;48.750;9.314;2023-02-28T04:01:17;-0.80;99.90
40676;DHT22;26359;48.750;9.314;2023-02-28T04:03:44;-0.80;99.90
40676;DHT22;26359;48.750;9.314;2023-02-28T04:06:19;-0.80;99.90
40676;DHT22;26359;48.750;9.314;2023-02-28T04:08:45;-0.80;99.90
40676;DHT22;26359;48.750;9.314;2023-02-28T04:11:36;-0.80;99.90
40676;DHT22;26359;48.750;9.314;2023-02-28T04:14:03;-0.80;99.90
40676;DHT22;26359;48.750;9.314;2023-02-28T04:16:30;-0.80;99.90
40676;DHT22;26359;48.750;9.314;2023-02-28T04:18:56;-0.80;99.90
40676;DHT22;26359;48.750;9.314;2023-02-28T04:21:31;-0.80;99.90
40676;DHT22;26359;48.750;9.314;2023-02-28T04:23:56;-0.80;99.90
40676;DHT22;26359;48.750;9.314;2023-02-28T04:26:33;-0.80;99.90
40676;DHT22;26359;48.750;9.314;2023-02-28T04:29:00;-0.80;99.90
40676;DHT22;26359;48.750;9.314;2023-02-28T04:31:26;-0.70;99.90
40676;DHT22;26359;48.750;9.314;2023-02-28T04:33:51;-0.70;99.90
40676;DHT22;26359;48.750;9.314;2023-02-28T04:36:17;-0.70;99.90
40676;DHT22;26359;48.750;9.314;2023-02-28T04:38:44;-0.80;99.90
40676;DHT22;26359;48.750;9.314;2023-02-28T04:41:11;-0.70;99.90
40676;DHT22;26359;48.750;9.314;2023-02-28T04:43:36;-0.70;99.90
40676;DHT22;26359;48.750;9.314;2023-02-28T04:46:03;-0.70;99.90
40676;DHT22;26359;48.750;9.314;2023-02-28T04:48:32;-0.70;99.90
40676;DHT22;26359;48.750;9.314;2023-02-28T04:51:05;-0.80;99.90
40676;DHT22;26359;48.750;9.314;2023-02-28T04:53:31;-0.80;99.90
40676;DHT22;26359;48.750;9.314;2023-02-28T04:55:58;-0.80;99.90
40676;DHT22;26359;48.750;9.314;2023-02-28T04:58:24;-0.80;99.90
40676;DHT22;26359;48.750;9.314;2023-02-28T05:00:50;-0.70;99.90
40676;DHT22;26359;48.750;9.314;2023-02-28T05:03:16;-0.70;99.90
40676;DHT22;26359;48.750;9.314;2023-02-28T05:05:42;-0.70;99.90
40676;DHT22;26359;48.750;9.314;2023-02-28T05:08:07;-0.70;99.90
40676;DHT22;26359;48.750;9.314;2023-02-28T05:10:33;-0.70;99.90
40676;DHT22;26359;48.750;9.314;2023-02-28T05:12:58;-0.70;99.90
40676;DHT22;26359;48.750;9.314;2023-02-28T05:15:24;-0.60;99.90
40676;DHT22;26359;48.750;9.314;2023-02-28T05:17:50;-0.60;99.90
40676;DHT22;26359;48.750;9.314;2023-02-28T05:20:15;-0.60;99.90
40676;DHT22;26359;48.750;9.314;2023-02-28T05:22:41;-0.60;99.90
40676;DHT22;26359;48.750;9.314;2023-02-28T05:25:10;-0.60;99.90
40676;DHT22;26359;48.750;9.314;2023-02-28T05:27:37;-0.60;99.90
40676;DHT22;26359;48.750;9.314;2023-02-28T05:30:03;-0.60;99.90
40676;DHT22;26359;48.750;9.314;2023-02-28T05:32:29;-0.60;99.90
40676;DHT22;26359;48.750;9.314;2023-02-28T05:34:55;-0.60;99.90
40676;DHT22;26359;48.750;9.314;2023-02-28T05:37:20;-0.60;99.90
40676;DHT22;26359;48.750;9.314;2023-02-28T05:39:46;-0.60;99.90
40676;DHT22;26359;48.750;9.314;2023-02-28T05:42:11;-0.60;99.90
40676;DHT22;26359;48.750;9.314;2023-02-28T05:44:37;-0.50;99.90
40676;DHT22;26359;48.750;9.314;2023-02-28T05:47:03;-0.50;99.90
40676;DHT22;26359;48.750;9.314;2023-02-28T05:49:29;-0.50;99.90
40676;DHT22;26359;48.750;9.314;2023-02-28T05:51:54;-0.50;99.90
40676;DHT22;26359;48.750;9.314;2023-02-28T05:54:20;-0.50;99.90
40676;DHT22;26359;48.750;9.314;2023-02-28T05:56:45;-0.50;99.90
40676;DHT22;26359;48.750;9.314;2023-02-28T05:59:12;-0.50;99.90
40676;DHT22;26359;48.750;9.314;2023-02-28T06:01:40;-0.50;99.90
40676;DHT22;26359;48.750;9.314;2023-02-28T06:04:08;-0.50;99.90
40676;DHT22;26359;48.750;9.314;2023-02-28T06:06:34;-0.60;99.90
40676;DHT22;26359;48.750;9.314;2023-02-28T06:09:01;-0.50;99.90
40676;DHT22;26359;48.750;9.314;2023-02-28T06:11:27;-0.50;99.90
40676;DHT22;26359;48.750;9.314;2023-02-28T06:14:02;-0.50;99.90
40676;DHT22;26359;48.750;9.314;2023-02-28T06:16:29;-0.40;99.90
40676;DHT22;26359;48.750;9.314;2023-02-28T06:18:57;-0.40;99.90
40676;DHT22;26359;48.750;9.314;2023-02-28T06:21:23;-0.40;99.90
40676;DHT22;26359;48.750;9.314;2023-02-28T06:23:50;-0.40;99.90
40676;DHT22;26359;48.750;9.314;2023-02-28T06:26:15;-0.40;99.90
40676;DHT22;26359;48.750;9.314;2023-02-28T06:28:41;-0.30;99.90
40676;DHT22;26359;48.750;9.314;2023-02-28T06:31:17;-0.40;99.90
40676;DHT22;26359;48.750;9.314;2023-02-28T06:33:46;-0.40;99.90
40676;DHT22;26359;48.750;9.314;2023-02-28T06:36:13;-0.30;99.90
40676;DHT22;26359;48.750;9.314;2023-02-28T06:38:40;-0.30;99.90
40676;DHT22;26359;48.750;9.314;2023-02-28T06:41:06;-0.30;99.90
40676;DHT22;26359;48.750;9.314;2023-02-28T06:43:35;-0.30;99.90
40676;DHT22;26359;48.750;9.314;2023-02-28T06:46:04;-0.30;99.90
40676;DHT22;26359;48.750;9.314;2023-02-28T06:48:30;-0.30;99.90
40676;DHT22;26359;48.750;9.314;2023-02-28T06:51:11;-0.20;99.90
40676;DHT22;26359;48.750;9.314;2023-02-28T06:53:37;-0.20;99.90
40676;DHT22;26359;48.750;9.314;2023-02-28T06:56:10;-0.20;99.90
40676;DHT22;26359;48.750;9.314;2023-02-28T06:58:37;-0.20;99.90
40676;DHT22;26359;48.750;9.314;2023-02-28T07:01:04;-0.10;99.90
40676;DHT22;26359;48.750;9.314;2023-02-28T07:03:30;0.10;99.90
40676;DHT22;26359;48.750;9.314;2023-02-28T07:05:56;0.60;99.90
40676;DHT22;26359;48.750;9.314;2023-02-28T07:08:22;0.80;99.90
40676;DHT22;26359;48.750;9.314;2023-02-28T07:10:51;0.90;99.90
40676;DHT22;26359;48.750;9.314;2023-02-28T07:13:17;0.90;99.90
40676;DHT22;26359;48.750;9.314;2023-02-28T07:15:42;0.90;99.90
40676;DHT22;26359;48.750;9.314;2023-02-28T07:18:08;0.90;99.90
40676;DHT22;26359;48.750;9.314;2023-02-28T07:20:33;0.60;99.90
40676;DHT22;26359;48.750;9.314;2023-02-28T07:22:59;0.50;99.90
40676;DHT22;26359;48.750;9.314;2023-02-28T07:25:26;0.40;99.90
40676;DHT22;26359;48.750;9.314;2023-02-28T07:27:53;0.40;99.90
40676;DHT22;26359;48.750;9.314;2023-02-28T07:30:18;0.40;99.90
40676;DHT22;26359;48.750;9.314;2023-02-28T07:32:44;0.30;99.90
40676;DHT22;26359;48.750;9.314;2023-02-28T07:35:09;0.20;99.90
40676;DHT22;26359;48.750;9.314;2023-02-28T07:37:35;0.20;99.90
40676;DHT22;26359;48.750;9.314;2023-02-28T07:40:06;0.30;99.90
40676;DHT22;26359;48.750;9.314;2023-02-28T07:42:36;0.30;99.90
40676;DHT22;26359;48.750;9.314;2023-02-28T07:45:02;0.30;99.90
40676;DHT22;26359;48.750;9.314;2023-02-28T07:47:29;0.30;99.90
40676;DHT22;26359;48.750;9.314;2023-02-28T07:49:55;0.30;99.90
40676;DHT22;26359;48.750;9.314;2023-02-28T07:52:21;0.20;99.90
40676;DHT22;26359;48.750;9.314;2023-02-28T07:54:46;0.20;99.90
40676;DHT22;26359;48.750;9.314;2023-02-28T07:57:12;0.20;99.90
40676;DHT22;26359;48.750;9.314;2023-02-28T07:59:37;0.20;99.90
40676;DHT22;26359;48.750;9.314;2023-02-28T08:02:03;0.20;99.90
40676;DHT22;26359;48.750;9.314;2023-02-28T08:04:31;0.20;99.90
40676;DHT22;26359;48.750;9.314;2023-02-28T08:06:57;0.30;99.90
40676;DHT22;26359;48.750;9.314;2023-02-28T08:09:22;0.30;99.90
40676;DHT22;26359;48.750;9.314;2023-02-28T08:11:48;0.30;99.90
40676;DHT22;26359;48.750;9.314;2023-02-28T08:14:13;0.40;99.90
40676;DHT22;26359;48.750;9.314;2023-02-28T08:16:39;0.40;99.90
40676;DHT22;26359;48.750;9.314;2023-02-28T08:19:04;0.40;99.90
40676;DHT22;26359;48.750;9.314;2023-02-28T08:21:30;0.40;99.90
40676;DHT22;26359;48.750;9.314;2023-02-28T08:23:56;0.50;99.90
40676;DHT22;26359;48.750;9.314;2023-02-28T08:26:22;0.50;99.90
40676;DHT22;26359;48.750;9.314;2023-02-28T08:28:48;0.50;99.90
40676;DHT22;26359;48.750;9.314;2023-02-28T08:31:15;0.50;99.90
40676;DHT22;26359;48.750;9.314;2023-02-28T08:33:42;0.50;99.90
40676;DHT22;26359;48.750;9.314;2023-02-28T08:36:09;0.40;99.90
40676;DHT22;26359;48.750;9.314;2023-02-28T08:38:36;0.40;99.90
40676;DHT22;26359;48.750;9.314;2023-02-28T08:41:05;0.40;99.90
40676;DHT22;26359;48.750;9.314;2023-02-28T08:43:34;0.50;99.90
40676;DHT22;26359;48.750;9.314;2023-02-28T08:46:00;0.50;99.90
40676;DHT22;26359;48.750;9.314;2023-02-28T08:48:28;0.60;99.90
40676;DHT22;26359;48.750;9.314;2023-02-28T08:50:56;0.60;99.90
40676;DHT22;26359;48.750;9.314;2023-02-28T08:53:21;0.60;99.90
40676;DHT22;26359;48.750;9.314;2023-02-28T08:55:47;0.60;99.90
40676;DHT22;26359;48.750;9.314;2023-02-28T08:58:12;0.50;99.90
40676;DHT22;26359;48.750;9.314;2023-02-28T09:00:39;0.50;99.90
40676;DHT22;26359;48.750;9.314;2023-02-28T09:03:05;0.60;99.90
40676;DHT22;26359;48.750;9.314;2023-02-28T09:05:30;0.60;99.90
40676;DHT22;26359;48.750;9.314;2023-02-28T09:07:56;0.70;99.90
40676;DHT22;26359;48.750;9.314;2023-02-28T09:10:21;0.80;99.90
40676;DHT22;26359;48.750;9.314;2023-02-28T09:12:47;0.80;99.90
40676;DHT22;26359;48.750;9.314;2023-02-28T09:15:12;0.80;99.90
40676;DHT22;26359;48.750;9.314;2023-02-28T09:17:38;0.90;99.90
40676;DHT22;26359;48.750;9.314;2023-02-28T09:20:04;0.90;99.90
40676;DHT22;26359;48.750;9.314;2023-02-28T09:22:30;1.00;99.90
40676;DHT22;26359;48.750;9.314;2023-02-28T09:24:56;1.00;99.90
40676;DHT22;26359;48.750;9.314;2023-02-28T09:27:22;1.00;99.90
40676;DHT22;26359;48.750;9.314;2023-02-28T09:29:47;1.00;99.90
40676;DHT22;26359;48.750;9.314;2023-02-28T09:32:14;1.00;99.90
40676;DHT22;26359;48.750;9.314;2023-02-28T09:34:39;1.00;99.90
40676;DHT22;26359;48.750;9.314;2023-02-28T09:37:05;1.10;99.90
40676;DHT22;26359;48.750;9.314;2023-02-28T09:39:31;1.10;99.90
40676;DHT22;26359;48.750;9.314;2023-02-28T09:41:57;1.20;99.90
40676;DHT22;26359;48.750;9.314;2023-02-28T09:46:58;1.30;99.90
40676;DHT22;26359;48.750;9.314;2023-02-28T09:49:32;1.20;99.90
40676;DHT22;26359;48.750;9.314;2023-02-28T09:52:03;1.30;99.90
40676;DHT22;26359;48.750;9.314;2023-02-28T09:54:31;1.40;99.90
40676;DHT22;26359;48.750;9.314;2023-02-28T10:02:07;1.60;99.90
40676;DHT22;26359;48.750;9.314;2023-02-28T10:04:56;1.60;99.90
40676;DHT22;26359;48.750;9.314;2023-02-28T10:08:22;1.70;99.90
40676;DHT22;26359;48.750;9.314;2023-02-28T10:10:37;1.80;99.90
40676;DHT22;26359;48.750;9.314;2023-02-28T10:13:11;1.90;99.90
40676;DHT22;26359;48.750;9.314;2023-02-28T10:15:38;1.90;99.90
40676;DHT22;26359;48.750;9.314;2023-02-28T10:18:06;2.00;99.90
40676;DHT22;26359;48.750;9.314;2023-02-28T10:20:37;2.10;99.90
40676;DHT22;26359;48.750;9.314;2023-02-28T10:23:11;2.20;99.90
40676;DHT22;26359;48.750;9.314;2023-02-28T10:25:38;2.20;99.90
40676;DHT22;26359;48.750;9.314;2023-02-28T10:30:33;2.10;99.90
40676;DHT22;26359;48.750;9.314;2023-02-28T10:32:59;2.20;99.90
40676;DHT22;26359;48.750;9.314;2023-02-28T10:35:26;2.30;99.90
40676;DHT22;26359;48.750;9.314;2023-02-28T10:37:57;2.40;99.90
40676;DHT22;26359;48.750;9.314;2023-02-28T10:45:28;2.60;99.90
40676;DHT22;26359;48.750;9.314;2023-02-28T10:48:04;2.70;99.90
40676;DHT22;26359;48.750;9.314;2023-02-28T10:58:26;3.10;99.90
40676;DHT22;26359;48.750;9.314;2023-02-28T11:00:53;3.10;99.90
40676;DHT22;26359;48.750;9.314;2023-02-28T11:03:30;3.20;99.90
40676;DHT22;26359;48.750;9.314;2023-02-28T11:05:56;3.30;99.90
40676;DHT22;26359;48.750;9.314;2023-02-28T11:08:22;3.30;99.90
40676;DHT22;26359;48.750;9.314;2023-02-28T11:10:55;3.30;99.90
40676;DHT22;26359;48.750;9.314;2023-02-28T11:13:33;3.30;99.90
40676;DHT22;26359;48.750;9.314;2023-02-28T11:16:03;3.40;99.90
40676;DHT22;26359;48.750;9.314;2023-02-28T11:18:34;3.40;99.90
40676;DHT22;26359;48.750;9.314;2023-02-28T11:21:02;3.40;99.90
40676;DHT22;26359;48.750;9.314;2023-02-28T11:23:31;3.50;99.90
40676;DHT22;26359;48.750;9.314;2023-02-28T11:26:01;3.40;99.90
40676;DHT22;26359;48.750;9.314;2023-02-28T11:28:33;3.50;99.90
40676;DHT22;26359;48.750;9.314;2023-02-28T11:31:16;3.50;99.90
40676;DHT22;26359;48.750;9.314;2023-02-28T11:33:54;3.80;99.90
40676;DHT22;26359;48.750;9.314;2023-02-28T11:36:29;4.20;99.90
40676;DHT22;26359;48.750;9.314;2023-02-28T11:38:57;4.80;99.90
40676;DHT22;26359;48.750;9.314;2023-02-28T11:47:10;6.50;99.90
40676;DHT22;26359;48.750;9.314;2023-02-28T11:55:27;6.90;99.90
40676;DHT22;26359;48.750;9.314;2023-02-28T11:58:11;7.00;99.90
40676;DHT22;26359;48.750;9.314;2023-02-28T12:00:53;6.90;99.90
40676;DHT22;26359;48.750;9.314;2023-02-28T12:03:51;7.10;99.90
40676;DHT22;26359;48.750;9.314;2023-02-28T12:06:31;7.30;99.90
40676;DHT22;26359;48.750;9.314;2023-02-28T12:09:28;7.40;99.90
40676;DHT22;26359;48.750;9.314;2023-02-28T12:25:45;8.80;99.90
40676;DHT22;26359;48.750;9.314;2023-02-28T12:28:16;8.50;99.90
40676;DHT22;26359;48.750;9.314;2023-02-28T12:30:51;8.30;99.90
40676;DHT22;26359;48.750;9.314;2023-02-28T12:33:22;8.30;99.90
40676;DHT22;26359;48.750;9.314;2023-02-28T12:35:54;8.10;99.90
40676;DHT22;26359;48.750;9.314;2023-02-28T12:41:02;7.80;99.90
40676;DHT22;26359;48.750;9.314;2023-02-28T12:43:34;7.50;99.90
40676;DHT22;26359;48.750;9.314;2023-02-28T12:46:36;7.40;99.90
40676;DHT22;26359;48.750;9.314;2023-02-28T12:49:09;7.10;99.90
40676;DHT22;26359;48.750;9.314;2023-02-28T12:51:36;7.20;99.90
40676;DHT22;26359;48.750;9.314;2023-02-28T12:54:12;7.40;99.90
40676;DHT22;26359;48.750;9.314;2023-02-28T13:02:39;7.90;99.90
40676;DHT22;26359;48.750;9.314;2023-02-28T13:08:15;8.30;99.90
40676;DHT22;26359;48.750;9.314;2023-02-28T13:10:47;8.60;99.90
40676;DHT22;26359;48.750;9.314;2023-02-28T13:13:20;8.80;99.90
40676;DHT22;26359;48.750;9.314;2023-02-28T13:18:32;9.20;99.90
40676;DHT22;26359;48.750;9.314;2023-02-28T13:21:00;8.80;99.90
40676;DHT22;26359;48.750;9.314;2023-02-28T13:23:41;8.70;99.90
40676;DHT22;26359;48.750;9.314;2023-02-28T13:26:22;8.80;99.90
40676;DHT22;26359;48.750;9.314;2023-02-28T13:29:02;8.70;99.90
40676;DHT22;26359;48.750;9.314;2023-02-28T13:31:29;8.80;99.90
40676;DHT22;26359;48.750;9.314;2023-02-28T13:36:32;9.20;99.90
40676;DHT22;26359;48.750;9.314;2023-02-28T13:38:59;9.30;99.90
40676;DHT22;26359;48.750;9.314;2023-02-28T13:44:20;9.20;99.90
40676;DHT22;26359;48.750;9.314;2023-02-28T13:57:12;8.40;99.90
40676;DHT22;26359;48.750;9.314;2023-02-28T14:02:45;8.80;99.90
40676;DHT22;26359;48.750;9.314;2023-02-28T14:05:15;8.90;99.90
40676;DHT22;26359;48.750;9.314;2023-02-28T14:07:48;8.70;99.90
40676;DHT22;26359;48.750;9.314;2023-02-28T14:12:56;8.50;99.90
40676;DHT22;26359;48.750;9.314;2023-02-28T14:15:56;8.30;99.90
40676;DHT22;26359;48.750;9.314;2023-02-28T14:18:32;8.20;99.90
40676;DHT22;26359;48.750;9.314;2023-02-28T14:23:45;8.10;99.90
40676;DHT22;26359;48.750;9.314;2023-02-28T14:26:26;8.20;99.90
40676;DHT22;26359;48.750;9.314;2023-02-28T14:29:17;8.00;99.90
40676;DHT22;26359;48.750;9.314;2023-02-28T14:34:50;8.10;99.90
40676;DHT22;26359;48.750;9.314;2023-02-28T14:37:30;8.20;99.90
40676;DHT22;26359;48.750;9.314;2023-02-28T14:39:59;8.30;99.90
40676;DHT22;26359;48.750;9.314;2023-02-28T14:42:33;8.30;99.90
40676;DHT22;26359;48.750;9.314;2023-02-28T14:44:59;8.40;99.90
40676;DHT22;26359;48.750;9.314;2023-02-28T14:47:28;8.40;99.90
40676;DHT22;26359;48.750;9.314;2023-02-28T14:49:55;8.40;99.90
40676;DHT22;26359;48.750;9.314;2023-02-28T14:52:24;8.50;99.90
40676;DHT22;26359;48.750;9.314;2023-02-28T14:55:04;8.50;99.90
40676;DHT22;26359;48.750;9.314;2023-02-28T14:57:34;8.50;99.90
40676;DHT22;26359;48.750;9.314;2023-02-28T15:00:13;8.30;99.90
40676;DHT22;26359;48.750;9.314;2023-02-28T15:02:40;7.80;99.90
40676;DHT22;26359;48.750;9.314;2023-02-28T15:07:47;7.50;99.90
40676;DHT22;26359;48.750;9.314;2023-02-28T15:10:18;7.60;99.90
40676;DHT22;26359;48.750;9.314;2023-02-28T15:12:53;7.60;99.90
40676;DHT22;26359;48.750;9.314;2023-02-28T15:15:22;7.50;99.90
40676;DHT22;26359;48.750;9.314;2023-02-28T15:17:54;7.50;99.90
40676;DHT22;26359;48.750;9.314;2023-02-28T15:20:21;7.60;99.90
40676;DHT22;26359;48.750;9.314;2023-02-28T15:22:50;7.60;99.90
40676;DHT22;26359;48.750;9.314;2023-02-28T15:25:20;7.60;99.90
40676;DHT22;26359;48.750;9.314;2023-02-28T15:27:49;7.60;99.90
40676;DHT22;26359;48.750;9.314;2023-02-28T15:30:34;7.60;99.90
40676;DHT22;26359;48.750;9.314;2023-02-28T15:35:37;7.20;99.90
40676;DHT22;26359;48.750;9.314;2023-02-28T15:38:17;7.20;99.90
40676;DHT22;26359;48.750;9.314;2023-02-28T15:40:56;7.10;99.90
40676;DHT22;26359;48.750;9.314;2023-02-28T15:43:32;7.00;99.90
40676;DHT22;26359;48.750;9.314;2023-02-28T15:48:31;6.70;99.90
40676;DHT22;26359;48.750;9.314;2023-02-28T15:51:09;6.70;99.90
40676;DHT22;26359;48.750;9.314;2023-02-28T15:53:47;6.60;99.90
40676;DHT22;26359;48.750;9.314;2023-02-28T15:56:23;6.60;99.90
40676;DHT22;26359;48.750;9.314;2023-02-28T15:58:50;6.60;99.90
40676;DHT22;26359;48.750;9.314;2023-02-28T16:03:47;6.40;99.90
40676;DHT22;26359;48.750;9.314;2023-02-28T16:08:42;6.20;99.90
40676;DHT22;26359;48.750;9.314;2023-02-28T16:11:10;6.20;99.90
40676;DHT22;26359;48.750;9.314;2023-02-28T16:13:36;6.20;99.90
40676;DHT22;26359;48.750;9.314;2023-02-28T16:16:02;6.10;99.90
40676;DHT22;26359;48.750;9.314;2023-02-28T16:18:28;6.00;99.90
40676;DHT22;26359;48.750;9.314;2023-02-28T16:20:54;5.90;99.90
40676;DHT22;26359;48.750;9.314;2023-02-28T16:23:19;5.80;99.90
40676;DHT22;26359;48.750;9.314;2023-02-28T16:25:45;5.70;99.90
40676;DHT22;26359;48.750;9.314;2023-02-28T16:28:25;5.50;99.90
40676;DHT22;26359;48.750;9.314;2023-02-28T16:30:52;5.40;99.90
40676;DHT22;26359;48.750;9.314;2023-02-28T16:33:17;5.40;99.90
40676;DHT22;26359;48.750;9.314;2023-02-28T16:35:43;5.30;99.90
40676;DHT22;26359;48.750;9.314;2023-02-28T16:38:08;5.20;99.90
40676;DHT22;26359;48.750;9.314;2023-02-28T16:40:35;5.20;99.90
40676;DHT22;26359;48.750;9.314;2023-02-28T16:43:05;5.10;99.90
40676;DHT22;26359;48.750;9.314;2023-02-28T16:45:31;5.00;99.90
40676;DHT22;26359;48.750;9.314;2023-02-28T16:47:57;5.00;99.90
40676;DHT22;26359;48.750;9.314;2023-02-28T16:50:28;5.00;99.90
40676;DHT22;26359;48.750;9.314;2023-02-28T16:52:54;4.90;99.90
40676;DHT22;26359;48.750;9.314;2023-02-28T16:55:21;4.80;99.90
40676;DHT22;26359;48.750;9.314;2023-02-28T16:57:51;4.80;99.90
40676;DHT22;26359;48.750;9.314;2023-02-28T17:00:17;4.70;99.90
40676;DHT22;26359;48.750;9.314;2023-02-28T17:02:43;4.70;99.90
40676;DHT22;26359;48.750;9.314;2023-02-28T17:05:11;4.60;99.90
40676;DHT22;26359;48.750;9.314;2023-02-28T17:07:38;4.60;99.90
40676;DHT22;26359;48.750;9.314;2023-02-28T17:10:14;4.50;99.90
40676;DHT22;26359;48.750;9.314;2023-02-28T17:12:40;4.50;99.90
40676;DHT22;26359;48.750;9.314;2023-02-28T17:15:06;4.50;99.90
40676;DHT22;26359;48.750;9.314;2023-02-28T17:17:33;4.40;99.90
40676;DHT22;26359;48.750;9.314;2023-02-28T17:19:58;4.30;99.90
40676;DHT22;26359;48.750;9.314;2023-02-28T17:22:24;4.30;99.90
40676;DHT22;26359;48.750;9.314;2023-02-28T17:24:51;4.20;99.90
40676;DHT22;26359;48.750;9.314;2023-02-28T17:27:17;4.20;99.90
40676;DHT22;26359;48.750;9.314;2023-02-28T17:29:42;4.10;99.90
40676;DHT22;26359;48.750;9.314;2023-02-28T17:32:08;4.10;99.90
40676;DHT22;26359;48.750;9.314;2023-02-28T17:34:33;4.00;99.90
40676;DHT22;26359;48.750;9.314;2023-02-28T17:36:59;4.00;99.90
40676;DHT22;26359;48.750;9.314;2023-02-28T17:39:24;3.90;99.90
40676;DHT22;26359;48.750;9.314;2023-02-28T17:41:54;3.90;99.90
40676;DHT22;26359;48.750;9.314;2023-02-28T17:44:21;3.90;99.90
40676;DHT22;26359;48.750;9.314;2023-02-28T17:46:47;3.80;99.90
40676;DHT22;26359;48.750;9.314;2023-02-28T17:49:13;3.80;99.90
40676;DHT22;26359;48.750;9.314;2023-02-28T17:51:38;3.80;99.90
40676;DHT22;26359;48.750;9.314;2023-02-28T17:54:04;3.80;99.90
40676;DHT22;26359;48.750;9.314;2023-02-28T17:56:30;3.80;99.90
40676;DHT22;26359;48.750;9.314;2023-02-28T17:58:56;3.70;99.90
40676;DHT22;26359;48.750;9.314;2023-02-28T18:01:23;3.70;99.90
40676;DHT22;26359;48.750;9.314;2023-02-28T18:03:51;3.60;99.90
40676;DHT22;26359;48.750;9.314;2023-02-28T18:06:27;3.60;99.90
40676;DHT22;26359;48.750;9.314;2023-02-28T18:08:53;3.60;99.90